Helena Regional Airport
KHLN : now visible

Airfield :











YOU CAN JOIN US ON...

 
LOGIN :

Register | Disclaimer

   EN    FR    IT 

 









Legend :    VFR   Marginal VFR   IFR   Intensive IFR   Very Intensive IFR
Visi :
Ceiling :
>= 8 km
>= 3000ft
5 to 8 km
1000 to 3000 ft
1500m to 5 km
500 to 1000 ft
800 to 1500m
200 to 500 ft
< 800m
< 200 ft
Symbols :   Thunderstorms  Fog  Heavy snow  Heavy precipitations  Wind > 20 kt






- Airport Elevation : 3877 ft
- IATA code : HLN


KHLN - Helena Regional

CURRENT METAR :
  • 201053Z AUTO 19005KT 10SM FEW026 BKN041 OVC070 04/02 A2996 RMK AO2 SLP174 T00440022

EXPIRED METARs :
  • 201043Z AUTO 00000KT 10SM SCT023 BKN041 OVC070 05/03 A2995 RMK AO2 T00500028
  • 201025Z AUTO 04005KT 10SM FEW022 BKN026 OVC045 05/03 A2996 RMK AO2 T00500028
  • 200953Z AUTO 33009KT 10SM BKN032 OVC043 06/03 A2994 RMK AO2 RAE00 SLP169 P0000 T00610028
  • 200853Z AUTO 26007KT 10SM -RA SCT033 OVC043 06/02 A2992 RMK AO2 RAB47 SLP158 P0000 60000 T00610022 53009

TAF KHLN
Valid from the 20 at 06:00 until the 21 at 06:00 UTC


200541Z 2006/2106 VRB04KT P6SM -SHRA BKN040
FM201100 28006KT P6SM VCSH SCT040 BKN060
FM201700 29011KT P6SM SCT070 BKN100
FM210000 25005KT P6SM SCT090
KZLC FIR / North America



MET'MAP, your aeronautical weather chart ! - Copyright ORBIFLY December 2007 - Disclaimer

ORBIFLY MET'MAP TEAM :

Programming & Development : Alexandra Zaïnal
Concept & original design : Baudouin d'Aumeries
Assistance for programming : Marc-Olivier Méhu
Technical & hardware support : Manuel Goepfert

Contact : metmap@orbifly.com




SOURCES & CREDITS :

   NOAA       Earth
Advisory